Wildrose, ND (58795)

8:38 PM CDT on July 28, 2014 (GMT -0500)
KNDALAMO3 Elev 2090 ft | 48.49 °N, 103.51 °W | Change Station

Current weather conditions updated 3 minutes ago

Mostly Cloudy
Mostly Cloudy
73.0 °F
Feels Like 76 °F
N
3.0
Wind Variable Wind from ESE
Gusts 7.0 mph

Tomorrow is forecast to be nearly the same temperature as today.

Today
High -- | Low -- °F
--% Chance of Precip.
Yesterday
High -- | Low -- °F
Precip. -- in
6:21 AM 9:35 PM
Waxing Crescent, 4% visible
Pressure 30.26 in
Visibility 10.0 miles
Clouds Mostly Cloudy 9500 ft
Heat Index 76 °F
Dew Point 60 °F
Humidity 65%
Rainfall 0.00 in
Snow Depth Not available.
UV 0.0 out of 12
Pollen 6.60 out of 12
Air Quality Not available.
Flu Activity Not available.
METAR KD60 290135Z AUTO 11005KT 10SM BKN095 20/15 A3026 RMK AO2

More Conditions Fewer Conditions

Pressure 30.26 in
Visibility 10.0 miles
Clouds Mostly Cloudy 9500 ft
Heat Index 76 °F
Dew Point 60 °F
Humidity 65%
Rainfall 0.00 in
Snow Depth Not available.
UV 0.0 out of 12
Pollen 6.60 out of 12
Air Quality Not available.
Flu Activity Not available.
METAR KD60 290135Z AUTO 11005KT 10SM BKN095 20/15 A3026 RMK AO2

More Conditions Fewer Conditions

10-Day Weather Forecast

Almanac

Astronomy

Jul. 28, 2014 Rise Set
Actual Time 6:21 AM CDT 9:35 PM CDT
Civil Twilight 5:44 AM CDT 10:13 PM CDT
Nautical Twilight 4:54 AM CDT 11:02 PM CDT
Astronomical Twilight 3:50 AM CDT 12:05 AM CDT
Moon 8:18 AM CDT (7/28) 10:02 PM CDT (7/28)
Length of Visible Light 16h 29m
Length of Day
15h 14m
Tomorrow will be 2m 39s shorter.
Waxing Crescent, 4% of the Moon is Illuminated
Today
Waxing Crescent
Aug 3
First Quarter
Aug 10
Full
Aug 17
Last Quarter
Aug 25
New

Today's Extremes

State Highs State Lows

Community

WunderPhotos

Upload Photos

1,738,578 photos uploaded!

WunderBlogs® & News

Nearby

Snow Depth

Station Depth Elevation
No new snow has been reported.

Earthquake Activity

City Distance Mag. Time & Date
No recent earthquake activity has been reported nearby.
Minimum magnitude displayed is 2.5.

Coastal Water Temperatures

Place Temperature
No Stations Reporting

Nearby Weather Stations

Station Location Temp. Heat Index Dew Point Humidity Wind Precip. Elev Updated Type
Alamo, ND 73.0 °F 76 °F 60 °F 65% ESE  at  3.0 mph 0.00 in / hr 2090 ft 8:35 PM CDT Normal
South of Alamo, ND, ALAMO, ND 72.7 °F 77 °F 57 °F 57% SW  at  5.8 mph 0.00 in / hr 2116 ft 8:38 PM CDT Rapid Fire

Show More Stations Show Fewer Stations